sensor_id;sensor_type;location;lat;lon;timestamp;P1;durP1;ratioP1;P2;durP2;ratioP2
14167;SDS011;7163;50.626;12.922;2022-08-07T00:01:57;4.70;;;1.70;;
14167;SDS011;7163;50.626;12.922;2022-08-07T00:06:57;2.30;;;1.70;;
14167;SDS011;7163;50.626;12.922;2022-08-07T00:11:58;2.07;;;1.70;;
14167;SDS011;7163;50.626;12.922;2022-08-07T00:16:59;2.13;;;1.80;;
14167;SDS011;7163;50.626;12.922;2022-08-07T00:22:00;2.97;;;1.70;;
14167;SDS011;7163;50.626;12.922;2022-08-07T00:27:01;1.80;;;1.70;;
14167;SDS011;7163;50.626;12.922;2022-08-07T00:32:01;3.33;;;2.13;;
14167;SDS011;7163;50.626;12.922;2022-08-07T00:37:02;2.57;;;1.60;;
14167;SDS011;7163;50.626;12.922;2022-08-07T00:42:02;3.90;;;1.70;;
14167;SDS011;7163;50.626;12.922;2022-08-07T00:47:03;6.67;;;1.50;;
14167;SDS011;7163;50.626;12.922;2022-08-07T00:52:05;2.20;;;1.83;;
14167;SDS011;7163;50.626;12.922;2022-08-07T00:57:06;3.83;;;1.50;;
14167;SDS011;7163;50.626;12.922;2022-08-07T01:02:09;1.70;;;1.60;;
14167;SDS011;7163;50.626;12.922;2022-08-07T01:07:11;2.10;;;1.50;;
14167;SDS011;7163;50.626;12.922;2022-08-07T01:12:12;4.67;;;1.87;;
14167;SDS011;7163;50.626;12.922;2022-08-07T01:17:14;1.73;;;1.63;;
14167;SDS011;7163;50.626;12.922;2022-08-07T01:22:14;2.83;;;1.70;;
14167;SDS011;7163;50.626;12.922;2022-08-07T01:27:15;2.03;;;1.80;;
14167;SDS011;7163;50.626;12.922;2022-08-07T01:32:15;1.90;;;1.70;;
14167;SDS011;7163;50.626;12.922;2022-08-07T01:37:16;1.80;;;1.70;;
14167;SDS011;7163;50.626;12.922;2022-08-07T01:42:17;1.97;;;1.60;;
14167;SDS011;7163;50.626;12.922;2022-08-07T01:47:18;3.83;;;1.90;;
14167;SDS011;7163;50.626;12.922;2022-08-07T01:52:19;3.60;;;2.10;;
14167;SDS011;7163;50.626;12.922;2022-08-07T01:57:21;3.43;;;1.90;;
14167;SDS011;7163;50.626;12.922;2022-08-07T02:02:24;2.60;;;1.70;;
14167;SDS011;7163;50.626;12.922;2022-08-07T02:07:29;2.87;;;1.77;;
14167;SDS011;7163;50.626;12.922;2022-08-07T02:12:33;2.70;;;1.93;;
14167;SDS011;7163;50.626;12.922;2022-08-07T02:17:36;2.83;;;1.87;;
14167;SDS011;7163;50.626;12.922;2022-08-07T02:22:37;1.97;;;1.83;;
14167;SDS011;7163;50.626;12.922;2022-08-07T02:27:39;2.97;;;1.60;;
14167;SDS011;7163;50.626;12.922;2022-08-07T02:32:40;3.40;;;1.60;;
14167;SDS011;7163;50.626;12.922;2022-08-07T02:37:41;3.97;;;1.87;;
14167;SDS011;7163;50.626;12.922;2022-08-07T02:42:43;2.17;;;1.70;;
14167;SDS011;7163;50.626;12.922;2022-08-07T02:47:44;2.47;;;1.90;;
14167;SDS011;7163;50.626;12.922;2022-08-07T02:53:05;5.60;;;1.87;;
14167;SDS011;7163;50.626;12.922;2022-08-07T02:58:09;2.17;;;1.80;;
14167;SDS011;7163;50.626;12.922;2022-08-07T03:03:11;2.27;;;2.07;;
14167;SDS011;7163;50.626;12.922;2022-08-07T03:08:11;2.73;;;1.90;;
14167;SDS011;7163;50.626;12.922;2022-08-07T03:13:15;3.00;;;2.10;;
14167;SDS011;7163;50.626;12.922;2022-08-07T03:18:17;2.03;;;1.93;;
14167;SDS011;7163;50.626;12.922;2022-08-07T03:23:17;2.90;;;2.20;;
14167;SDS011;7163;50.626;12.922;2022-08-07T03:28:19;3.80;;;2.00;;
14167;SDS011;7163;50.626;12.922;2022-08-07T03:33:20;3.03;;;1.93;;
14167;SDS011;7163;50.626;12.922;2022-08-07T03:38:20;2.43;;;2.20;;
14167;SDS011;7163;50.626;12.922;2022-08-07T03:43:21;2.87;;;1.83;;
14167;SDS011;7163;50.626;12.922;2022-08-07T03:48:22;2.10;;;2.00;;
14167;SDS011;7163;50.626;12.922;2022-08-07T03:53:23;2.17;;;1.90;;
14167;SDS011;7163;50.626;12.922;2022-08-07T03:58:24;2.73;;;1.90;;
14167;SDS011;7163;50.626;12.922;2022-08-07T04:03:24;1.73;;;1.63;;
14167;SDS011;7163;50.626;12.922;2022-08-07T04:08:25;2.03;;;1.87;;
14167;SDS011;7163;50.626;12.922;2022-08-07T04:13:26;4.50;;;1.80;;
14167;SDS011;7163;50.626;12.922;2022-08-07T04:18:26;2.03;;;1.83;;
14167;SDS011;7163;50.626;12.922;2022-08-07T04:23:27;2.03;;;1.90;;
14167;SDS011;7163;50.626;12.922;2022-08-07T04:28:27;1.70;;;1.60;;
14167;SDS011;7163;50.626;12.922;2022-08-07T04:33:28;1.97;;;1.77;;
14167;SDS011;7163;50.626;12.922;2022-08-07T04:38:28;2.80;;;1.80;;
14167;SDS011;7163;50.626;12.922;2022-08-07T04:43:29;1.83;;;1.73;;
14167;SDS011;7163;50.626;12.922;2022-08-07T04:48:38;1.70;;;1.60;;
14167;SDS011;7163;50.626;12.922;2022-08-07T04:53:45;3.07;;;1.93;;
14167;SDS011;7163;50.626;12.922;2022-08-07T04:58:57;2.57;;;2.13;;
14167;SDS011;7163;50.626;12.922;2022-08-07T05:14:39;2.10;;;1.70;;
14167;SDS011;7163;50.626;12.922;2022-08-07T05:19:44;1.87;;;1.67;;
14167;SDS011;7163;50.626;12.922;2022-08-07T05:24:47;2.53;;;1.93;;
14167;SDS011;7163;50.626;12.922;2022-08-07T05:29:48;2.80;;;1.60;;
14167;SDS011;7163;50.626;12.922;2022-08-07T05:34:49;2.20;;;1.70;;
14167;SDS011;7163;50.626;12.922;2022-08-07T05:39:50;1.60;;;1.50;;
14167;SDS011;7163;50.626;12.922;2022-08-07T05:44:51;2.40;;;1.90;;
14167;SDS011;7163;50.626;12.922;2022-08-07T05:49:52;1.73;;;1.50;;
14167;SDS011;7163;50.626;12.922;2022-08-07T05:54:52;2.73;;;1.50;;
14167;SDS011;7163;50.626;12.922;2022-08-07T05:59:52;2.77;;;1.60;;
14167;SDS011;7163;50.626;12.922;2022-08-07T06:04:54;2.63;;;1.40;;
14167;SDS011;7163;50.626;12.922;2022-08-07T06:09:56;1.40;;;1.30;;
14167;SDS011;7163;50.626;12.922;2022-08-07T06:14:57;1.47;;;1.33;;
14167;SDS011;7163;50.626;12.922;2022-08-07T06:19:57;1.47;;;1.30;;
14167;SDS011;7163;50.626;12.922;2022-08-07T06:24:58;1.73;;;1.40;;
14167;SDS011;7163;50.626;12.922;2022-08-07T06:29:59;1.40;;;1.30;;
14167;SDS011;7163;50.626;12.922;2022-08-07T06:34:59;1.30;;;1.20;;
14167;SDS011;7163;50.626;12.922;2022-08-07T06:40:01;1.70;;;1.47;;
14167;SDS011;7163;50.626;12.922;2022-08-07T06:45:05;1.40;;;1.30;;
14167;SDS011;7163;50.626;12.922;2022-08-07T06:50:10;1.60;;;1.50;;
14167;SDS011;7163;50.626;12.922;2022-08-07T06:55:19;4.33;;;1.50;;
14167;SDS011;7163;50.626;12.922;2022-08-07T07:00:21;3.10;;;1.50;;
14167;SDS011;7163;50.626;12.922;2022-08-07T07:05:22;2.50;;;1.37;;
14167;SDS011;7163;50.626;12.922;2022-08-07T07:10:40;2.63;;;1.60;;
14167;SDS011;7163;50.626;12.922;2022-08-07T07:15:48;3.87;;;1.60;;
14167;SDS011;7163;50.626;12.922;2022-08-07T07:20:55;4.60;;;1.80;;
14167;SDS011;7163;50.626;12.922;2022-08-07T07:25:58;2.93;;;1.20;;
14167;SDS011;7163;50.626;12.922;2022-08-07T07:31:03;2.08;;;1.33;;
14167;SDS011;7163;50.626;12.922;2022-08-07T07:36:06;1.88;;;1.05;;
14167;SDS011;7163;50.626;12.922;2022-08-07T07:41:07;1.38;;;1.00;;
14167;SDS011;7163;50.626;12.922;2022-08-07T07:46:09;3.60;;;1.20;;
14167;SDS011;7163;50.626;12.922;2022-08-07T07:51:10;2.03;;;1.23;;
14167;SDS011;7163;50.626;12.922;2022-08-07T07:56:11;3.58;;;1.13;;
14167;SDS011;7163;50.626;12.922;2022-08-07T08:01:12;1.20;;;1.10;;
14167;SDS011;7163;50.626;12.922;2022-08-07T08:06:14;1.08;;;0.85;;
14167;SDS011;7163;50.626;12.922;2022-08-07T08:11:15;2.47;;;0.90;;
14167;SDS011;7163;50.626;12.922;2022-08-07T08:16:17;1.15;;;0.70;;
14167;SDS011;7163;50.626;12.922;2022-08-07T08:21:19;2.25;;;1.20;;
14167;SDS011;7163;50.626;12.922;2022-08-07T08:26:38;1.20;;;0.70;;
14167;SDS011;7163;50.626;12.922;2022-08-07T08:31:57;0.95;;;0.95;;
14167;SDS011;7163;50.626;12.922;2022-08-07T08:36:59;1.45;;;0.88;;
14167;SDS011;7163;50.626;12.922;2022-08-07T08:42:02;1.73;;;0.80;;
14167;SDS011;7163;50.626;12.922;2022-08-07T08:47:25;2.20;;;1.10;;
14167;SDS011;7163;50.626;12.922;2022-08-07T09:03:18;3.00;;;0.88;;
14167;SDS011;7163;50.626;12.922;2022-08-07T09:08:32;3.60;;;1.33;;
14167;SDS011;7163;50.626;12.922;2022-08-07T09:13:42;1.85;;;1.10;;
14167;SDS011;7163;50.626;12.922;2022-08-07T09:18:55;2.20;;;1.25;;
14167;SDS011;7163;50.626;12.922;2022-08-07T09:29:33;3.85;;;1.05;;
14167;SDS011;7163;50.626;12.922;2022-08-07T09:35:02;1.83;;;1.20;;
14167;SDS011;7163;50.626;12.922;2022-08-07T09:40:13;2.22;;;1.10;;
14167;SDS011;7163;50.626;12.922;2022-08-07T10:01:31;1.63;;;1.05;;
14167;SDS011;7163;50.626;12.922;2022-08-07T10:06:57;1.05;;;0.95;;
14167;SDS011;7163;50.626;12.922;2022-08-07T10:12:09;3.83;;;0.90;;
14167;SDS011;7163;50.626;12.922;2022-08-07T10:17:37;1.35;;;0.98;;
14167;SDS011;7163;50.626;12.922;2022-08-07T10:33:38;0.82;;;0.82;;
14167;SDS011;7163;50.626;12.922;2022-08-07T10:38:51;4.63;;;1.10;;
14167;SDS011;7163;50.626;12.922;2022-08-07T10:49:44;2.90;;;0.85;;
14167;SDS011;7163;50.626;12.922;2022-08-07T10:54:58;0.80;;;0.80;;
14167;SDS011;7163;50.626;12.922;2022-08-07T11:00:13;2.05;;;1.00;;
14167;SDS011;7163;50.626;12.922;2022-08-07T11:10:53;1.67;;;1.00;;
14167;SDS011;7163;50.626;12.922;2022-08-07T11:15:56;1.70;;;1.20;;
14167;SDS011;7163;50.626;12.922;2022-08-07T11:21:11;1.58;;;1.10;;
14167;SDS011;7163;50.626;12.922;2022-08-07T11:31:55;1.33;;;1.00;;
14167;SDS011;7163;50.626;12.922;2022-08-07T11:37:04;1.55;;;1.08;;
14167;SDS011;7163;50.626;12.922;2022-08-07T12:04:15;0.88;;;0.80;;
14167;SDS011;7163;50.626;12.922;2022-08-07T12:09:47;1.77;;;1.20;;
14167;SDS011;7163;50.626;12.922;2022-08-07T12:15:02;2.00;;;1.00;;
14167;SDS011;7163;50.626;12.922;2022-08-07T12:20:07;1.35;;;1.00;;
14167;SDS011;7163;50.626;12.922;2022-08-07T12:30:43;1.83;;;1.05;;
14167;SDS011;7163;50.626;12.922;2022-08-07T12:35:45;1.70;;;1.20;;
14167;SDS011;7163;50.626;12.922;2022-08-07T12:40:46;5.15;;;1.23;;
14167;SDS011;7163;50.626;12.922;2022-08-07T12:45:51;2.17;;;1.17;;
14167;SDS011;7163;50.626;12.922;2022-08-07T12:50:59;1.48;;;1.33;;
14167;SDS011;7163;50.626;12.922;2022-08-07T13:17:01;1.80;;;1.20;;
14167;SDS011;7163;50.626;12.922;2022-08-07T13:22:25;2.45;;;1.20;;
14167;SDS011;7163;50.626;12.922;2022-08-07T13:27:39;1.55;;;1.02;;
14167;SDS011;7163;50.626;12.922;2022-08-07T13:33:02;1.80;;;1.00;;
14167;SDS011;7163;50.626;12.922;2022-08-07T13:43:44;3.25;;;1.10;;
14167;SDS011;7163;50.626;12.922;2022-08-07T13:48:48;2.35;;;1.45;;
14167;SDS011;7163;50.626;12.922;2022-08-07T13:53:52;3.20;;;1.38;;
14167;SDS011;7163;50.626;12.922;2022-08-07T13:58:55;4.53;;;0.90;;
14167;SDS011;7163;50.626;12.922;2022-08-07T14:04:09;0.95;;;0.93;;
14167;SDS011;7163;50.626;12.922;2022-08-07T14:09:19;2.40;;;1.25;;
14167;SDS011;7163;50.626;12.922;2022-08-07T14:14:25;1.70;;;1.00;;
14167;SDS011;7163;50.626;12.922;2022-08-07T14:19:34;1.30;;;1.13;;
14167;SDS011;7163;50.626;12.922;2022-08-07T14:24:38;7.15;;;1.40;;
14167;SDS011;7163;50.626;12.922;2022-08-07T14:29:39;2.15;;;0.95;;
14167;SDS011;7163;50.626;12.922;2022-08-07T14:34:43;4.35;;;1.30;;
14167;SDS011;7163;50.626;12.922;2022-08-07T14:39:46;3.38;;;1.42;;
14167;SDS011;7163;50.626;12.922;2022-08-07T14:44:52;0.98;;;0.93;;
14167;SDS011;7163;50.626;12.922;2022-08-07T14:49:55;1.30;;;1.20;;
14167;SDS011;7163;50.626;12.922;2022-08-07T14:54:55;2.20;;;1.30;;
14167;SDS011;7163;50.626;12.922;2022-08-07T14:59:56;1.48;;;1.05;;
14167;SDS011;7163;50.626;12.922;2022-08-07T15:04:58;1.00;;;0.95;;
14167;SDS011;7163;50.626;12.922;2022-08-07T15:09:59;2.40;;;1.08;;
14167;SDS011;7163;50.626;12.922;2022-08-07T15:15:09;1.20;;;0.90;;
14167;SDS011;7163;50.626;12.922;2022-08-07T15:20:13;2.17;;;1.08;;
14167;SDS011;7163;50.626;12.922;2022-08-07T15:25:15;1.83;;;1.08;;
14167;SDS011;7163;50.626;12.922;2022-08-07T15:30:19;3.17;;;1.23;;
14167;SDS011;7163;50.626;12.922;2022-08-07T15:35:21;3.78;;;1.10;;
14167;SDS011;7163;50.626;12.922;2022-08-07T15:40:24;1.52;;;0.98;;
14167;SDS011;7163;50.626;12.922;2022-08-07T15:45:28;3.35;;;1.00;;
14167;SDS011;7163;50.626;12.922;2022-08-07T15:50:42;3.60;;;1.25;;
14167;SDS011;7163;50.626;12.922;2022-08-07T15:55:45;1.10;;;1.00;;
14167;SDS011;7163;50.626;12.922;2022-08-07T16:00:51;1.20;;;1.10;;
14167;SDS011;7163;50.626;12.922;2022-08-07T16:05:52;1.52;;;0.95;;
14167;SDS011;7163;50.626;12.922;2022-08-07T16:10:56;2.45;;;1.30;;
14167;SDS011;7163;50.626;12.922;2022-08-07T16:16:10;0.80;;;0.80;;
14167;SDS011;7163;50.626;12.922;2022-08-07T16:21:15;1.33;;;1.00;;
14167;SDS011;7163;50.626;12.922;2022-08-07T16:36:50;1.40;;;1.30;;
14167;SDS011;7163;50.626;12.922;2022-08-07T16:42:16;3.17;;;1.92;;
14167;SDS011;7163;50.626;12.922;2022-08-07T16:53:06;4.80;;;1.00;;
14167;SDS011;7163;50.626;12.922;2022-08-07T16:58:25;2.10;;;1.30;;
14167;SDS011;7163;50.626;12.922;2022-08-07T17:03:49;1.45;;;1.02;;
14167;SDS011;7163;50.626;12.922;2022-08-07T17:09:10;1.75;;;1.20;;
14167;SDS011;7163;50.626;12.922;2022-08-07T17:14:15;2.30;;;0.90;;
14167;SDS011;7163;50.626;12.922;2022-08-07T17:19:37;1.85;;;1.15;;
14167;SDS011;7163;50.626;12.922;2022-08-07T17:30:08;1.25;;;1.10;;
14167;SDS011;7163;50.626;12.922;2022-08-07T17:35:11;1.50;;;1.10;;
14167;SDS011;7163;50.626;12.922;2022-08-07T17:40:27;1.30;;;1.20;;
14167;SDS011;7163;50.626;12.922;2022-08-07T17:45:36;3.38;;;1.17;;
14167;SDS011;7163;50.626;12.922;2022-08-07T17:50:52;2.40;;;1.08;;
14167;SDS011;7163;50.626;12.922;2022-08-07T18:01:10;1.85;;;1.10;;
14167;SDS011;7163;50.626;12.922;2022-08-07T18:06:14;4.53;;;1.13;;
14167;SDS011;7163;50.626;12.922;2022-08-07T18:16:51;1.98;;;1.10;;
14167;SDS011;7163;50.626;12.922;2022-08-07T18:22:29;1.48;;;0.82;;
14167;SDS011;7163;50.626;12.922;2022-08-07T18:27:27;1.20;;;1.10;;
14167;SDS011;7163;50.626;12.922;2022-08-07T18:43:47;1.13;;;1.07;;
14167;SDS011;7163;50.626;12.922;2022-08-07T18:48:52;1.10;;;1.10;;
14167;SDS011;7163;50.626;12.922;2022-08-07T18:54:02;4.07;;;1.30;;
14167;SDS011;7163;50.626;12.922;2022-08-07T18:59:17;1.27;;;1.17;;
14167;SDS011;7163;50.626;12.922;2022-08-07T19:04:44;1.77;;;1.10;;
14167;SDS011;7163;50.626;12.922;2022-08-07T19:10:03;2.03;;;1.30;;
14167;SDS011;7163;50.626;12.922;2022-08-07T19:15:28;2.40;;;1.40;;
14167;SDS011;7163;50.626;12.922;2022-08-07T19:26:00;3.90;;;1.63;;
14167;SDS011;7163;50.626;12.922;2022-08-07T19:31:15;2.70;;;1.73;;
14167;SDS011;7163;50.626;12.922;2022-08-07T19:36:22;2.03;;;1.60;;
14167;SDS011;7163;50.626;12.922;2022-08-07T19:41:27;2.53;;;1.60;;
14167;SDS011;7163;50.626;12.922;2022-08-07T19:46:33;2.10;;;1.60;;
14167;SDS011;7163;50.626;12.922;2022-08-07T19:51:39;4.60;;;1.80;;
14167;SDS011;7163;50.626;12.922;2022-08-07T19:56:41;4.10;;;1.60;;
14167;SDS011;7163;50.626;12.922;2022-08-07T20:01:45;2.07;;;1.77;;
14167;SDS011;7163;50.626;12.922;2022-08-07T20:06:46;5.87;;;2.73;;
14167;SDS011;7163;50.626;12.922;2022-08-07T20:11:48;3.57;;;2.37;;
14167;SDS011;7163;50.626;12.922;2022-08-07T20:16:52;2.90;;;2.03;;
14167;SDS011;7163;50.626;12.922;2022-08-07T20:21:55;6.13;;;2.53;;
14167;SDS011;7163;50.626;12.922;2022-08-07T20:27:00;6.70;;;2.13;;
14167;SDS011;7163;50.626;12.922;2022-08-07T20:32:02;2.73;;;1.97;;
14167;SDS011;7163;50.626;12.922;2022-08-07T20:37:04;3.13;;;1.97;;
14167;SDS011;7163;50.626;12.922;2022-08-07T20:42:10;3.27;;;1.40;;
14167;SDS011;7163;50.626;12.922;2022-08-07T20:47:11;1.87;;;1.63;;
14167;SDS011;7163;50.626;12.922;2022-08-07T20:52:16;2.33;;;1.87;;
14167;SDS011;7163;50.626;12.922;2022-08-07T20:57:22;2.83;;;1.90;;
14167;SDS011;7163;50.626;12.922;2022-08-07T21:02:24;1.70;;;1.60;;
14167;SDS011;7163;50.626;12.922;2022-08-07T21:07:44;3.60;;;1.80;;
14167;SDS011;7163;50.626;12.922;2022-08-07T21:12:47;2.20;;;1.60;;
14167;SDS011;7163;50.626;12.922;2022-08-07T21:17:47;5.23;;;1.60;;
14167;SDS011;7163;50.626;12.922;2022-08-07T21:22:50;1.87;;;1.70;;
14167;SDS011;7163;50.626;12.922;2022-08-07T21:27:55;1.97;;;1.77;;
14167;SDS011;7163;50.626;12.922;2022-08-07T21:33:05;2.60;;;2.00;;
14167;SDS011;7163;50.626;12.922;2022-08-07T21:38:25;2.23;;;1.80;;
14167;SDS011;7163;50.626;12.922;2022-08-07T21:49:19;3.47;;;2.10;;
14167;SDS011;7163;50.626;12.922;2022-08-07T21:54:29;4.37;;;2.40;;
14167;SDS011;7163;50.626;12.922;2022-08-07T22:04:44;3.53;;;2.03;;
14167;SDS011;7163;50.626;12.922;2022-08-07T22:09:46;2.40;;;1.70;;
14167;SDS011;7163;50.626;12.922;2022-08-07T22:14:52;2.60;;;1.70;;
14167;SDS011;7163;50.626;12.922;2022-08-07T22:19:57;2.87;;;1.63;;
14167;SDS011;7163;50.626;12.922;2022-08-07T22:25:11;1.90;;;1.80;;
14167;SDS011;7163;50.626;12.922;2022-08-07T22:30:15;2.07;;;1.87;;
14167;SDS011;7163;50.626;12.922;2022-08-07T22:35:18;3.30;;;2.00;;
14167;SDS011;7163;50.626;12.922;2022-08-07T22:40:26;3.33;;;1.90;;
14167;SDS011;7163;50.626;12.922;2022-08-07T22:46:15;2.20;;;2.00;;
14167;SDS011;7163;50.626;12.922;2022-08-07T22:56:29;3.03;;;2.00;;
14167;SDS011;7163;50.626;12.922;2022-08-07T23:07:06;4.27;;;2.10;;
14167;SDS011;7163;50.626;12.922;2022-08-07T23:12:52;2.30;;;2.10;;
14167;SDS011;7163;50.626;12.922;2022-08-07T23:17:58;2.33;;;1.93;;
14167;SDS011;7163;50.626;12.922;2022-08-07T23:23:13;3.00;;;2.13;;
14167;SDS011;7163;50.626;12.922;2022-08-07T23:34:02;2.40;;;2.00;;
14167;SDS011;7163;50.626;12.922;2022-08-07T23:39:24;3.07;;;2.37;;
14167;SDS011;7163;50.626;12.922;2022-08-07T23:44:39;4.03;;;2.20;;
14167;SDS011;7163;50.626;12.922;2022-08-07T23:50:15;2.43;;;2.07;;
14167;SDS011;7163;50.626;12.922;2022-08-07T23:55:25;4.70;;;2.40;;
